sensor_id;sensor_type;location;lat;lon;timestamp;P1;durP1;ratioP1;P2;durP2;ratioP2
34459;SDS011;20704;51.260;22.558;2023-11-19T00:00:30;26.13;;;11.60;;
34459;SDS011;20704;51.260;22.558;2023-11-19T00:02:52;25.50;;;11.40;;
34459;SDS011;20704;51.260;22.558;2023-11-19T00:04:55;23.77;;;11.23;;
34459;SDS011;20704;51.260;22.558;2023-11-19T00:06:57;27.40;;;11.80;;
34459;SDS011;20704;51.260;22.558;2023-11-19T00:09:04;27.67;;;10.53;;
34459;SDS011;20704;51.260;22.558;2023-11-19T00:11:07;29.13;;;11.23;;
34459;SDS011;20704;51.260;22.558;2023-11-19T00:13:09;32.27;;;12.57;;
34459;SDS011;20704;51.260;22.558;2023-11-19T00:15:12;26.67;;;12.07;;
34459;SDS011;20704;51.260;22.558;2023-11-19T00:17:15;25.30;;;11.27;;
34459;SDS011;20704;51.260;22.558;2023-11-19T00:19:18;29.50;;;11.93;;
34459;SDS011;20704;51.260;22.558;2023-11-19T00:21:20;26.80;;;11.67;;
34459;SDS011;20704;51.260;22.558;2023-11-19T00:23:23;25.60;;;11.47;;
34459;SDS011;20704;51.260;22.558;2023-11-19T00:25:26;24.90;;;12.87;;
34459;SDS011;20704;51.260;22.558;2023-11-19T00:27:28;24.43;;;11.57;;
34459;SDS011;20704;51.260;22.558;2023-11-19T00:29:30;22.00;;;11.07;;
34459;SDS011;20704;51.260;22.558;2023-11-19T00:31:33;23.63;;;10.73;;
34459;SDS011;20704;51.260;22.558;2023-11-19T00:33:35;25.57;;;11.17;;
34459;SDS011;20704;51.260;22.558;2023-11-19T00:35:50;26.90;;;12.53;;
34459;SDS011;20704;51.260;22.558;2023-11-19T00:37:53;26.70;;;11.33;;
34459;SDS011;20704;51.260;22.558;2023-11-19T00:39:56;26.83;;;11.67;;
34459;SDS011;20704;51.260;22.558;2023-11-19T00:41:58;26.30;;;12.23;;
34459;SDS011;20704;51.260;22.558;2023-11-19T00:44:00;24.93;;;11.90;;
34459;SDS011;20704;51.260;22.558;2023-11-19T00:46:03;27.00;;;11.50;;
34459;SDS011;20704;51.260;22.558;2023-11-19T00:48:08;30.80;;;13.20;;
34459;SDS011;20704;51.260;22.558;2023-11-19T00:50:11;29.00;;;11.90;;
34459;SDS011;20704;51.260;22.558;2023-11-19T00:52:15;34.43;;;13.90;;
34459;SDS011;20704;51.260;22.558;2023-11-19T00:54:18;30.13;;;13.10;;
34459;SDS011;20704;51.260;22.558;2023-11-19T00:56:20;30.90;;;14.80;;
34459;SDS011;20704;51.260;22.558;2023-11-19T00:58:22;34.53;;;14.33;;
34459;SDS011;20704;51.260;22.558;2023-11-19T01:00:24;30.13;;;12.87;;
34459;SDS011;20704;51.260;22.558;2023-11-19T01:02:29;30.97;;;13.10;;
34459;SDS011;20704;51.260;22.558;2023-11-19T01:04:34;36.13;;;15.13;;
34459;SDS011;20704;51.260;22.558;2023-11-19T01:06:38;36.90;;;15.47;;
34459;SDS011;20704;51.260;22.558;2023-11-19T01:08:50;32.13;;;13.83;;
34459;SDS011;20704;51.260;22.558;2023-11-19T01:10:52;31.33;;;13.27;;
34459;SDS011;20704;51.260;22.558;2023-11-19T01:12:54;35.03;;;13.93;;
34459;SDS011;20704;51.260;22.558;2023-11-19T01:14:57;32.27;;;13.93;;
34459;SDS011;20704;51.260;22.558;2023-11-19T01:17:00;29.60;;;12.13;;
34459;SDS011;20704;51.260;22.558;2023-11-19T01:19:03;31.97;;;13.50;;
34459;SDS011;20704;51.260;22.558;2023-11-19T01:21:18;35.27;;;14.17;;
34459;SDS011;20704;51.260;22.558;2023-11-19T01:23:21;32.87;;;12.83;;
34459;SDS011;20704;51.260;22.558;2023-11-19T01:25:23;32.27;;;13.97;;
34459;SDS011;20704;51.260;22.558;2023-11-19T01:27:25;29.40;;;12.50;;
34459;SDS011;20704;51.260;22.558;2023-11-19T01:29:27;25.47;;;11.70;;
34459;SDS011;20704;51.260;22.558;2023-11-19T01:31:30;28.40;;;12.50;;
34459;SDS011;20704;51.260;22.558;2023-11-19T01:33:35;28.77;;;11.47;;
34459;SDS011;20704;51.260;22.558;2023-11-19T01:35:38;25.20;;;11.10;;
34459;SDS011;20704;51.260;22.558;2023-11-19T01:37:41;24.83;;;10.27;;
34459;SDS011;20704;51.260;22.558;2023-11-19T01:39:43;24.90;;;10.43;;
34459;SDS011;20704;51.260;22.558;2023-11-19T01:41:59;27.50;;;11.77;;
34459;SDS011;20704;51.260;22.558;2023-11-19T01:44:02;23.07;;;10.80;;
34459;SDS011;20704;51.260;22.558;2023-11-19T01:46:05;17.70;;;8.53;;
34459;SDS011;20704;51.260;22.558;2023-11-19T01:48:09;27.17;;;11.90;;
34459;SDS011;20704;51.260;22.558;2023-11-19T01:50:13;23.00;;;10.30;;
34459;SDS011;20704;51.260;22.558;2023-11-19T01:52:16;27.03;;;10.07;;
34459;SDS011;20704;51.260;22.558;2023-11-19T01:54:19;20.80;;;10.17;;
34459;SDS011;20704;51.260;22.558;2023-11-19T01:56:22;22.67;;;10.43;;
34459;SDS011;20704;51.260;22.558;2023-11-19T01:58:26;24.03;;;9.27;;
34459;SDS011;20704;51.260;22.558;2023-11-19T02:00:29;22.10;;;9.73;;
34459;SDS011;20704;51.260;22.558;2023-11-19T02:02:35;21.57;;;9.37;;
34459;SDS011;20704;51.260;22.558;2023-11-19T02:04:38;21.33;;;10.90;;
34459;SDS011;20704;51.260;22.558;2023-11-19T02:06:40;31.10;;;10.73;;
34459;SDS011;20704;51.260;22.558;2023-11-19T02:08:45;26.47;;;11.23;;
34459;SDS011;20704;51.260;22.558;2023-11-19T02:10:47;24.20;;;10.73;;
34459;SDS011;20704;51.260;22.558;2023-11-19T02:12:49;22.07;;;9.60;;
34459;SDS011;20704;51.260;22.558;2023-11-19T02:14:53;29.67;;;10.83;;
34459;SDS011;20704;51.260;22.558;2023-11-19T02:16:56;24.87;;;9.90;;
34459;SDS011;20704;51.260;22.558;2023-11-19T02:18:58;27.60;;;11.67;;
34459;SDS011;20704;51.260;22.558;2023-11-19T02:21:01;26.07;;;11.17;;
34459;SDS011;20704;51.260;22.558;2023-11-19T02:23:03;28.23;;;11.17;;
34459;SDS011;20704;51.260;22.558;2023-11-19T02:25:11;27.37;;;10.83;;
34459;SDS011;20704;51.260;22.558;2023-11-19T02:29:50;34.40;;;12.20;;
34459;SDS011;20704;51.260;22.558;2023-11-19T02:31:52;28.00;;;11.20;;
34459;SDS011;20704;51.260;22.558;2023-11-19T02:33:57;24.67;;;10.97;;
34459;SDS011;20704;51.260;22.558;2023-11-19T02:35:59;27.17;;;11.47;;
34459;SDS011;20704;51.260;22.558;2023-11-19T02:38:02;27.53;;;11.43;;
34459;SDS011;20704;51.260;22.558;2023-11-19T02:40:05;28.47;;;11.10;;
34459;SDS011;20704;51.260;22.558;2023-11-19T02:42:11;27.73;;;11.63;;
34459;SDS011;20704;51.260;22.558;2023-11-19T02:44:14;27.63;;;10.53;;
34459;SDS011;20704;51.260;22.558;2023-11-19T02:46:17;29.87;;;11.30;;
34459;SDS011;20704;51.260;22.558;2023-11-19T02:48:21;28.90;;;11.43;;
34459;SDS011;20704;51.260;22.558;2023-11-19T02:50:24;26.53;;;10.97;;
34459;SDS011;20704;51.260;22.558;2023-11-19T02:52:27;23.83;;;9.27;;
34459;SDS011;20704;51.260;22.558;2023-11-19T02:54:30;25.10;;;9.93;;
34459;SDS011;20704;51.260;22.558;2023-11-19T02:56:36;22.67;;;9.53;;
34459;SDS011;20704;51.260;22.558;2023-11-19T02:58:42;22.30;;;9.37;;
34459;SDS011;20704;51.260;22.558;2023-11-19T03:00:46;22.47;;;9.20;;
34459;SDS011;20704;51.260;22.558;2023-11-19T03:02:59;23.70;;;8.63;;
34459;SDS011;20704;51.260;22.558;2023-11-19T03:05:02;24.20;;;8.97;;
34459;SDS011;20704;51.260;22.558;2023-11-19T03:07:06;21.40;;;8.33;;
34459;SDS011;20704;51.260;22.558;2023-11-19T03:09:09;20.60;;;8.43;;
34459;SDS011;20704;51.260;22.558;2023-11-19T03:11:12;17.17;;;7.70;;
34459;SDS011;20704;51.260;22.558;2023-11-19T03:13:14;17.93;;;7.70;;
34459;SDS011;20704;51.260;22.558;2023-11-19T03:15:17;17.07;;;7.57;;
34459;SDS011;20704;51.260;22.558;2023-11-19T03:17:20;16.60;;;6.83;;
34459;SDS011;20704;51.260;22.558;2023-11-19T03:19:22;15.70;;;6.77;;
34459;SDS011;20704;51.260;22.558;2023-11-19T03:21:27;13.67;;;7.07;;
34459;SDS011;20704;51.260;22.558;2023-11-19T03:23:31;20.53;;;8.23;;
34459;SDS011;20704;51.260;22.558;2023-11-19T03:25:33;17.40;;;6.83;;
34459;SDS011;20704;51.260;22.558;2023-11-19T03:27:36;16.57;;;5.97;;
34459;SDS011;20704;51.260;22.558;2023-11-19T03:29:40;23.10;;;8.47;;
34459;SDS011;20704;51.260;22.558;2023-11-19T03:31:42;20.97;;;7.83;;
34459;SDS011;20704;51.260;22.558;2023-11-19T03:33:45;17.60;;;8.67;;
34459;SDS011;20704;51.260;22.558;2023-11-19T03:35:48;20.73;;;8.70;;
34459;SDS011;20704;51.260;22.558;2023-11-19T03:37:52;17.93;;;7.30;;
34459;SDS011;20704;51.260;22.558;2023-11-19T03:39:55;17.83;;;8.40;;
34459;SDS011;20704;51.260;22.558;2023-11-19T03:42:03;19.27;;;7.57;;
34459;SDS011;20704;51.260;22.558;2023-11-19T03:44:06;22.43;;;8.47;;
34459;SDS011;20704;51.260;22.558;2023-11-19T03:48:24;15.10;;;7.37;;
34459;SDS011;20704;51.260;22.558;2023-11-19T03:50:26;20.57;;;9.03;;
34459;SDS011;20704;51.260;22.558;2023-11-19T03:52:29;13.57;;;6.93;;
34459;SDS011;20704;51.260;22.558;2023-11-19T03:54:31;17.17;;;7.23;;
34459;SDS011;20704;51.260;22.558;2023-11-19T03:56:34;17.80;;;6.80;;
34459;SDS011;20704;51.260;22.558;2023-11-19T03:58:37;20.57;;;8.63;;
34459;SDS011;20704;51.260;22.558;2023-11-19T04:00:40;19.27;;;9.00;;
34459;SDS011;20704;51.260;22.558;2023-11-19T04:02:42;18.63;;;7.47;;
34459;SDS011;20704;51.260;22.558;2023-11-19T04:04:45;27.43;;;9.50;;
34459;SDS011;20704;51.260;22.558;2023-11-19T04:06:47;25.07;;;9.77;;
34459;SDS011;20704;51.260;22.558;2023-11-19T04:08:50;18.40;;;8.97;;
34459;SDS011;20704;51.260;22.558;2023-11-19T04:10:52;26.63;;;10.37;;
34459;SDS011;20704;51.260;22.558;2023-11-19T04:12:55;24.63;;;10.17;;
34459;SDS011;20704;51.260;22.558;2023-11-19T04:14:57;24.90;;;10.13;;
34459;SDS011;20704;51.260;22.558;2023-11-19T04:17:03;26.83;;;10.27;;
34459;SDS011;20704;51.260;22.558;2023-11-19T04:19:05;26.40;;;10.93;;
34459;SDS011;20704;51.260;22.558;2023-11-19T04:21:08;29.27;;;12.53;;
34459;SDS011;20704;51.260;22.558;2023-11-19T04:23:10;28.63;;;11.57;;
34459;SDS011;20704;51.260;22.558;2023-11-19T04:25:13;29.00;;;11.23;;
34459;SDS011;20704;51.260;22.558;2023-11-19T04:27:16;25.23;;;11.80;;
34459;SDS011;20704;51.260;22.558;2023-11-19T04:29:19;29.20;;;11.73;;
34459;SDS011;20704;51.260;22.558;2023-11-19T04:31:22;27.60;;;9.83;;
34459;SDS011;20704;51.260;22.558;2023-11-19T04:33:25;26.13;;;10.80;;
34459;SDS011;20704;51.260;22.558;2023-11-19T04:35:27;29.00;;;10.77;;
34459;SDS011;20704;51.260;22.558;2023-11-19T04:37:30;27.93;;;9.90;;
34459;SDS011;20704;51.260;22.558;2023-11-19T04:39:32;25.27;;;10.50;;
34459;SDS011;20704;51.260;22.558;2023-11-19T04:41:35;27.53;;;10.60;;
34459;SDS011;20704;51.260;22.558;2023-11-19T04:43:38;25.00;;;10.73;;
34459;SDS011;20704;51.260;22.558;2023-11-19T04:45:40;25.87;;;10.40;;
34459;SDS011;20704;51.260;22.558;2023-11-19T04:47:43;26.90;;;10.47;;
34459;SDS011;20704;51.260;22.558;2023-11-19T04:49:46;24.07;;;10.73;;
34459;SDS011;20704;51.260;22.558;2023-11-19T04:51:48;26.53;;;11.47;;
34459;SDS011;20704;51.260;22.558;2023-11-19T04:53:51;24.47;;;10.47;;
34459;SDS011;20704;51.260;22.558;2023-11-19T04:55:53;28.23;;;11.83;;
34459;SDS011;20704;51.260;22.558;2023-11-19T04:57:56;29.13;;;12.73;;
34459;SDS011;20704;51.260;22.558;2023-11-19T04:59:58;25.43;;;11.37;;
34459;SDS011;20704;51.260;22.558;2023-11-19T05:02:01;26.07;;;10.57;;
34459;SDS011;20704;51.260;22.558;2023-11-19T05:04:03;22.70;;;10.57;;
34459;SDS011;20704;51.260;22.558;2023-11-19T05:06:06;24.20;;;10.00;;
34459;SDS011;20704;51.260;22.558;2023-11-19T05:08:08;32.20;;;12.00;;
34459;SDS011;20704;51.260;22.558;2023-11-19T05:10:11;21.67;;;10.87;;
34459;SDS011;20704;51.260;22.558;2023-11-19T05:12:13;25.37;;;11.67;;
34459;SDS011;20704;51.260;22.558;2023-11-19T05:14:16;25.30;;;11.13;;
34459;SDS011;20704;51.260;22.558;2023-11-19T05:16:20;24.93;;;11.50;;
34459;SDS011;20704;51.260;22.558;2023-11-19T05:18:23;23.10;;;9.53;;
34459;SDS011;20704;51.260;22.558;2023-11-19T05:20:25;23.40;;;10.00;;
34459;SDS011;20704;51.260;22.558;2023-11-19T05:22:27;25.93;;;10.90;;
34459;SDS011;20704;51.260;22.558;2023-11-19T05:24:31;53.37;;;11.73;;
34459;SDS011;20704;51.260;22.558;2023-11-19T05:26:33;33.33;;;11.10;;
34459;SDS011;20704;51.260;22.558;2023-11-19T05:28:37;26.10;;;9.23;;
34459;SDS011;20704;51.260;22.558;2023-11-19T05:30:41;31.80;;;10.23;;
34459;SDS011;20704;51.260;22.558;2023-11-19T05:32:43;22.63;;;9.80;;
34459;SDS011;20704;51.260;22.558;2023-11-19T05:34:46;32.17;;;11.90;;
34459;SDS011;20704;51.260;22.558;2023-11-19T05:36:51;25.70;;;10.10;;
34459;SDS011;20704;51.260;22.558;2023-11-19T05:38:53;27.23;;;10.80;;
34459;SDS011;20704;51.260;22.558;2023-11-19T05:40:55;26.63;;;12.07;;
34459;SDS011;20704;51.260;22.558;2023-11-19T05:42:58;29.30;;;11.30;;
34459;SDS011;20704;51.260;22.558;2023-11-19T05:45:01;31.23;;;12.73;;
34459;SDS011;20704;51.260;22.558;2023-11-19T05:47:03;22.20;;;10.70;;
34459;SDS011;20704;51.260;22.558;2023-11-19T05:49:06;24.53;;;9.77;;
34459;SDS011;20704;51.260;22.558;2023-11-19T05:51:08;28.33;;;10.83;;
34459;SDS011;20704;51.260;22.558;2023-11-19T05:53:10;22.23;;;10.77;;
34459;SDS011;20704;51.260;22.558;2023-11-19T05:55:15;28.47;;;11.67;;
34459;SDS011;20704;51.260;22.558;2023-11-19T05:57:17;26.47;;;11.37;;
34459;SDS011;20704;51.260;22.558;2023-11-19T05:59:25;30.53;;;10.87;;
34459;SDS011;20704;51.260;22.558;2023-11-19T06:01:31;30.13;;;11.90;;
34459;SDS011;20704;51.260;22.558;2023-11-19T06:03:33;24.97;;;11.27;;
34459;SDS011;20704;51.260;22.558;2023-11-19T06:05:36;24.33;;;10.13;;
34459;SDS011;20704;51.260;22.558;2023-11-19T06:07:38;26.23;;;10.93;;
34459;SDS011;20704;51.260;22.558;2023-11-19T06:09:43;23.30;;;10.90;;
34459;SDS011;20704;51.260;22.558;2023-11-19T06:11:45;33.73;;;12.37;;
34459;SDS011;20704;51.260;22.558;2023-11-19T06:13:48;21.80;;;9.67;;
34459;SDS011;20704;51.260;22.558;2023-11-19T06:15:53;18.83;;;8.93;;
34459;SDS011;20704;51.260;22.558;2023-11-19T06:17:55;23.13;;;9.80;;
34459;SDS011;20704;51.260;22.558;2023-11-19T06:19:59;20.90;;;10.83;;
34459;SDS011;20704;51.260;22.558;2023-11-19T06:22:02;20.73;;;10.17;;
34459;SDS011;20704;51.260;22.558;2023-11-19T06:24:05;22.07;;;9.30;;
34459;SDS011;20704;51.260;22.558;2023-11-19T06:26:07;20.60;;;9.67;;
34459;SDS011;20704;51.260;22.558;2023-11-19T06:28:10;20.67;;;9.27;;
34459;SDS011;20704;51.260;22.558;2023-11-19T06:30:12;21.23;;;9.10;;
34459;SDS011;20704;51.260;22.558;2023-11-19T06:32:15;25.37;;;9.87;;
34459;SDS011;20704;51.260;22.558;2023-11-19T06:34:17;16.63;;;7.83;;
34459;SDS011;20704;51.260;22.558;2023-11-19T06:36:20;18.53;;;8.80;;
34459;SDS011;20704;51.260;22.558;2023-11-19T06:38:23;17.83;;;7.70;;
34459;SDS011;20704;51.260;22.558;2023-11-19T06:40:25;21.03;;;9.00;;
34459;SDS011;20704;51.260;22.558;2023-11-19T06:42:28;19.00;;;8.57;;
34459;SDS011;20704;51.260;22.558;2023-11-19T06:44:30;17.57;;;8.03;;
34459;SDS011;20704;51.260;22.558;2023-11-19T06:46:33;20.87;;;7.97;;
34459;SDS011;20704;51.260;22.558;2023-11-19T06:48:35;19.70;;;7.37;;
34459;SDS011;20704;51.260;22.558;2023-11-19T06:50:38;17.53;;;7.27;;
34459;SDS011;20704;51.260;22.558;2023-11-19T06:52:40;21.13;;;8.40;;
34459;SDS011;20704;51.260;22.558;2023-11-19T06:54:43;18.23;;;8.07;;
34459;SDS011;20704;51.260;22.558;2023-11-19T06:56:47;16.83;;;8.00;;
34459;SDS011;20704;51.260;22.558;2023-11-19T06:58:50;19.33;;;8.67;;
34459;SDS011;20704;51.260;22.558;2023-11-19T07:00:53;20.43;;;9.03;;
34459;SDS011;20704;51.260;22.558;2023-11-19T07:02:56;17.67;;;7.67;;
34459;SDS011;20704;51.260;22.558;2023-11-19T07:04:58;17.57;;;7.93;;
34459;SDS011;20704;51.260;22.558;2023-11-19T07:07:01;19.47;;;8.80;;
34459;SDS011;20704;51.260;22.558;2023-11-19T07:09:04;18.07;;;9.17;;
34459;SDS011;20704;51.260;22.558;2023-11-19T07:11:12;18.77;;;8.27;;
34459;SDS011;20704;51.260;22.558;2023-11-19T07:13:19;30.73;;;8.43;;
34459;SDS011;20704;51.260;22.558;2023-11-19T07:15:21;15.63;;;7.93;;
34459;SDS011;20704;51.260;22.558;2023-11-19T07:17:23;14.67;;;7.97;;
34459;SDS011;20704;51.260;22.558;2023-11-19T07:19:26;16.97;;;7.67;;
34459;SDS011;20704;51.260;22.558;2023-11-19T07:21:28;18.07;;;8.27;;
34459;SDS011;20704;51.260;22.558;2023-11-19T07:23:31;20.40;;;8.67;;
34459;SDS011;20704;51.260;22.558;2023-11-19T07:25:34;18.67;;;8.67;;
34459;SDS011;20704;51.260;22.558;2023-11-19T07:27:37;17.20;;;7.77;;
34459;SDS011;20704;51.260;22.558;2023-11-19T07:29:40;20.13;;;8.37;;
34459;SDS011;20704;51.260;22.558;2023-11-19T07:31:44;20.07;;;8.73;;
34459;SDS011;20704;51.260;22.558;2023-11-19T07:33:46;19.87;;;8.70;;
34459;SDS011;20704;51.260;22.558;2023-11-19T07:35:49;16.00;;;7.60;;
34459;SDS011;20704;51.260;22.558;2023-11-19T07:37:52;23.90;;;9.33;;
34459;SDS011;20704;51.260;22.558;2023-11-19T07:39:55;19.00;;;8.23;;
34459;SDS011;20704;51.260;22.558;2023-11-19T07:41:57;15.77;;;7.07;;
34459;SDS011;20704;51.260;22.558;2023-11-19T07:44:00;19.33;;;8.10;;
34459;SDS011;20704;51.260;22.558;2023-11-19T07:46:02;17.40;;;7.57;;
34459;SDS011;20704;51.260;22.558;2023-11-19T07:48:06;20.87;;;9.13;;
34459;SDS011;20704;51.260;22.558;2023-11-19T07:50:08;19.63;;;7.57;;
34459;SDS011;20704;51.260;22.558;2023-11-19T07:52:11;21.83;;;9.37;;
34459;SDS011;20704;51.260;22.558;2023-11-19T07:54:16;22.50;;;9.03;;
34459;SDS011;20704;51.260;22.558;2023-11-19T07:56:19;23.70;;;9.77;;
34459;SDS011;20704;51.260;22.558;2023-11-19T07:58:21;25.37;;;9.47;;
34459;SDS011;20704;51.260;22.558;2023-11-19T08:00:23;17.57;;;7.93;;
34459;SDS011;20704;51.260;22.558;2023-11-19T08:02:26;17.60;;;8.63;;
34459;SDS011;20704;51.260;22.558;2023-11-19T08:04:28;20.03;;;9.53;;
34459;SDS011;20704;51.260;22.558;2023-11-19T08:06:31;19.87;;;8.47;;
34459;SDS011;20704;51.260;22.558;2023-11-19T08:08:34;19.53;;;9.97;;
34459;SDS011;20704;51.260;22.558;2023-11-19T08:10:36;20.00;;;8.63;;
34459;SDS011;20704;51.260;22.558;2023-11-19T08:12:39;21.00;;;8.83;;
34459;SDS011;20704;51.260;22.558;2023-11-19T08:14:41;19.97;;;8.93;;
34459;SDS011;20704;51.260;22.558;2023-11-19T08:16:44;13.40;;;7.20;;
34459;SDS011;20704;51.260;22.558;2023-11-19T08:18:46;16.33;;;7.60;;
34459;SDS011;20704;51.260;22.558;2023-11-19T08:20:48;15.70;;;7.17;;
34459;SDS011;20704;51.260;22.558;2023-11-19T08:22:54;16.43;;;7.23;;
34459;SDS011;20704;51.260;22.558;2023-11-19T08:24:57;15.80;;;7.47;;
34459;SDS011;20704;51.260;22.558;2023-11-19T08:26:59;16.13;;;6.93;;
34459;SDS011;20704;51.260;22.558;2023-11-19T08:29:05;14.30;;;7.40;;
34459;SDS011;20704;51.260;22.558;2023-11-19T08:31:07;17.03;;;7.43;;
34459;SDS011;20704;51.260;22.558;2023-11-19T08:33:10;16.37;;;7.60;;
34459;SDS011;20704;51.260;22.558;2023-11-19T08:35:13;18.83;;;8.33;;
34459;SDS011;20704;51.260;22.558;2023-11-19T08:37:15;18.47;;;7.50;;
34459;SDS011;20704;51.260;22.558;2023-11-19T08:39:22;16.33;;;8.57;;
34459;SDS011;20704;51.260;22.558;2023-11-19T08:41:24;19.23;;;8.87;;
34459;SDS011;20704;51.260;22.558;2023-11-19T08:43:27;21.10;;;8.03;;
34459;SDS011;20704;51.260;22.558;2023-11-19T08:45:31;19.23;;;8.17;;
34459;SDS011;20704;51.260;22.558;2023-11-19T08:47:33;15.03;;;7.17;;
34459;SDS011;20704;51.260;22.558;2023-11-19T08:49:41;14.03;;;7.10;;
34459;SDS011;20704;51.260;22.558;2023-11-19T08:51:43;15.83;;;7.63;;
34459;SDS011;20704;51.260;22.558;2023-11-19T08:53:48;16.20;;;7.83;;
34459;SDS011;20704;51.260;22.558;2023-11-19T08:55:51;14.60;;;7.13;;
34459;SDS011;20704;51.260;22.558;2023-11-19T08:57:54;11.43;;;5.47;;
34459;SDS011;20704;51.260;22.558;2023-11-19T08:59:56;15.03;;;7.13;;
34459;SDS011;20704;51.260;22.558;2023-11-19T09:01:59;12.60;;;6.73;;
34459;SDS011;20704;51.260;22.558;2023-11-19T09:04:01;14.97;;;6.80;;
34459;SDS011;20704;51.260;22.558;2023-11-19T09:06:04;12.93;;;6.63;;
34459;SDS011;20704;51.260;22.558;2023-11-19T09:08:07;13.73;;;6.80;;
34459;SDS011;20704;51.260;22.558;2023-11-19T09:10:10;13.43;;;6.80;;
34459;SDS011;20704;51.260;22.558;2023-11-19T09:12:14;11.37;;;5.77;;
34459;SDS011;20704;51.260;22.558;2023-11-19T09:14:16;12.43;;;6.70;;
34459;SDS011;20704;51.260;22.558;2023-11-19T09:16:20;13.27;;;6.60;;
34459;SDS011;20704;51.260;22.558;2023-11-19T09:18:23;14.40;;;7.10;;
34459;SDS011;20704;51.260;22.558;2023-11-19T09:20:26;13.90;;;6.70;;
34459;SDS011;20704;51.260;22.558;2023-11-19T09:22:28;11.80;;;6.03;;
34459;SDS011;20704;51.260;22.558;2023-11-19T09:24:30;15.67;;;6.93;;
34459;SDS011;20704;51.260;22.558;2023-11-19T09:26:33;13.73;;;6.70;;
34459;SDS011;20704;51.260;22.558;2023-11-19T09:28:36;14.30;;;6.77;;
34459;SDS011;20704;51.260;22.558;2023-11-19T09:30:38;14.83;;;6.80;;
34459;SDS011;20704;51.260;22.558;2023-11-19T09:32:40;14.23;;;7.27;;
34459;SDS011;20704;51.260;22.558;2023-11-19T09:34:43;12.90;;;6.27;;
34459;SDS011;20704;51.260;22.558;2023-11-19T09:36:45;12.07;;;6.70;;
34459;SDS011;20704;51.260;22.558;2023-11-19T09:38:48;17.13;;;6.70;;
34459;SDS011;20704;51.260;22.558;2023-11-19T09:40:50;15.80;;;7.10;;
34459;SDS011;20704;51.260;22.558;2023-11-19T09:42:52;21.07;;;7.33;;
34459;SDS011;20704;51.260;22.558;2023-11-19T09:44:55;16.73;;;6.40;;
34459;SDS011;20704;51.260;22.558;2023-11-19T09:46:59;13.90;;;7.13;;
34459;SDS011;20704;51.260;22.558;2023-11-19T09:49:03;14.33;;;6.47;;
34459;SDS011;20704;51.260;22.558;2023-11-19T09:51:10;13.23;;;7.17;;
34459;SDS011;20704;51.260;22.558;2023-11-19T09:53:12;12.30;;;6.40;;
34459;SDS011;20704;51.260;22.558;2023-11-19T09:55:16;15.93;;;7.60;;
34459;SDS011;20704;51.260;22.558;2023-11-19T09:57:19;14.67;;;7.30;;
34459;SDS011;20704;51.260;22.558;2023-11-19T09:59:22;17.57;;;7.77;;
34459;SDS011;20704;51.260;22.558;2023-11-19T10:01:24;19.57;;;8.33;;
34459;SDS011;20704;51.260;22.558;2023-11-19T10:03:32;19.17;;;8.33;;
34459;SDS011;20704;51.260;22.558;2023-11-19T10:05:41;16.70;;;8.03;;
34459;SDS011;20704;51.260;22.558;2023-11-19T10:07:44;24.00;;;8.60;;
34459;SDS011;20704;51.260;22.558;2023-11-19T10:09:46;18.40;;;8.17;;
34459;SDS011;20704;51.260;22.558;2023-11-19T10:11:49;16.27;;;7.80;;
34459;SDS011;20704;51.260;22.558;2023-11-19T10:13:53;16.63;;;7.40;;
34459;SDS011;20704;51.260;22.558;2023-11-19T10:15:56;14.47;;;8.17;;
34459;SDS011;20704;51.260;22.558;2023-11-19T10:18:01;14.90;;;8.00;;
34459;SDS011;20704;51.260;22.558;2023-11-19T10:20:07;11.60;;;6.23;;
34459;SDS011;20704;51.260;22.558;2023-11-19T10:22:10;12.20;;;6.50;;
34459;SDS011;20704;51.260;22.558;2023-11-19T10:24:13;10.90;;;6.10;;
34459;SDS011;20704;51.260;22.558;2023-11-19T10:26:30;14.43;;;6.70;;
34459;SDS011;20704;51.260;22.558;2023-11-19T10:28:39;15.50;;;7.87;;
34459;SDS011;20704;51.260;22.558;2023-11-19T10:30:47;17.97;;;7.60;;
34459;SDS011;20704;51.260;22.558;2023-11-19T10:35:08;17.40;;;8.10;;
34459;SDS011;20704;51.260;22.558;2023-11-19T10:37:29;16.67;;;8.13;;
34459;SDS011;20704;51.260;22.558;2023-11-19T10:39:53;20.70;;;8.73;;
34459;SDS011;20704;51.260;22.558;2023-11-19T10:41:57;21.33;;;8.33;;
34459;SDS011;20704;51.260;22.558;2023-11-19T10:44:01;21.50;;;10.00;;
34459;SDS011;20704;51.260;22.558;2023-11-19T10:46:11;18.83;;;10.10;;
34459;SDS011;20704;51.260;22.558;2023-11-19T10:48:14;26.42;;;9.23;;
34459;SDS011;20704;51.260;22.558;2023-11-19T10:50:17;19.50;;;9.63;;
34459;SDS011;20704;51.260;22.558;2023-11-19T10:52:19;18.40;;;9.17;;
34459;SDS011;20704;51.260;22.558;2023-11-19T10:54:22;18.43;;;7.17;;
34459;SDS011;20704;51.260;22.558;2023-11-19T10:56:26;14.20;;;6.93;;
34459;SDS011;20704;51.260;22.558;2023-11-19T10:58:32;15.67;;;6.67;;
34459;SDS011;20704;51.260;22.558;2023-11-19T11:01:01;17.80;;;8.60;;
34459;SDS011;20704;51.260;22.558;2023-11-19T11:03:08;14.83;;;7.70;;
34459;SDS011;20704;51.260;22.558;2023-11-19T11:05:13;20.43;;;9.00;;
34459;SDS011;20704;51.260;22.558;2023-11-19T11:07:17;15.60;;;7.63;;
34459;SDS011;20704;51.260;22.558;2023-11-19T11:09:27;15.17;;;6.60;;
34459;SDS011;20704;51.260;22.558;2023-11-19T11:11:31;14.57;;;7.40;;
34459;SDS011;20704;51.260;22.558;2023-11-19T11:13:34;17.13;;;8.03;;
34459;SDS011;20704;51.260;22.558;2023-11-19T11:15:38;18.93;;;8.20;;
34459;SDS011;20704;51.260;22.558;2023-11-19T11:17:44;12.87;;;7.33;;
34459;SDS011;20704;51.260;22.558;2023-11-19T11:19:48;14.37;;;9.07;;
34459;SDS011;20704;51.260;22.558;2023-11-19T11:21:59;18.70;;;8.70;;
34459;SDS011;20704;51.260;22.558;2023-11-19T11:27:28;20.95;;;9.52;;
34459;SDS011;20704;51.260;22.558;2023-11-19T11:30:24;16.03;;;8.47;;
34459;SDS011;20704;51.260;22.558;2023-11-19T11:33:21;22.03;;;8.70;;
34459;SDS011;20704;51.260;22.558;2023-11-19T11:37:32;17.97;;;9.27;;
34459;SDS011;20704;51.260;22.558;2023-11-19T11:39:39;15.63;;;9.27;;
34459;SDS011;20704;51.260;22.558;2023-11-19T11:41:45;18.73;;;8.90;;
34459;SDS011;20704;51.260;22.558;2023-11-19T11:45:52;18.90;;;9.47;;
34459;SDS011;20704;51.260;22.558;2023-11-19T11:49:56;20.73;;;9.77;;
34459;SDS011;20704;51.260;22.558;2023-11-19T11:52:11;16.63;;;8.73;;
34459;SDS011;20704;51.260;22.558;2023-11-19T11:56:24;22.07;;;10.70;;
34459;SDS011;20704;51.260;22.558;2023-11-19T11:58:35;20.67;;;10.53;;
34459;SDS011;20704;51.260;22.558;2023-11-19T12:00:40;18.77;;;10.43;;
34459;SDS011;20704;51.260;22.558;2023-11-19T12:02:43;22.90;;;11.17;;
34459;SDS011;20704;51.260;22.558;2023-11-19T12:04:50;20.73;;;9.40;;
34459;SDS011;20704;51.260;22.558;2023-11-19T12:07:04;24.53;;;12.00;;
34459;SDS011;20704;51.260;22.558;2023-11-19T12:09:08;26.67;;;10.70;;
34459;SDS011;20704;51.260;22.558;2023-11-19T12:11:10;20.87;;;11.50;;
34459;SDS011;20704;51.260;22.558;2023-11-19T12:13:14;21.93;;;10.97;;
34459;SDS011;20704;51.260;22.558;2023-11-19T12:15:21;17.43;;;9.60;;
34459;SDS011;20704;51.260;22.558;2023-11-19T12:19:36;16.88;;;8.50;;
34459;SDS011;20704;51.260;22.558;2023-11-19T12:21:46;22.30;;;10.43;;